Time;durP1;ratioP1;P1;durP2;ratioP2;P2;SDS_P1;SDS_P2;PMS_P1;PMS_P2;Temp;Humidity;BMP_temperature;BMP_pressure;BME280_temperature;BME280_humidity;BME280_pressure;Samples;Min_cycle;Max_cycle;Signal;HPM_P1;HPM_P2
2024/01/16 00:01:57;;;;;;;11.77;3.80;;;0.90;99.90;;;;;;5107045;28;20079;-40
2024/01/16 00:04:22;;;;;;;5.60;2.75;;;0.90;99.90;;;;;;5102494;28;20105;-39
2024/01/16 00:06:48;;;;;;;10.65;3.78;;;0.80;99.90;;;;;;5107665;28;20024;-39
2024/01/16 00:09:13;;;;;;;10.73;3.67;;;0.80;99.90;;;;;;5102606;28;20036;-40
2024/01/16 00:11:43;;;;;;;9.07;3.83;;;0.80;99.90;;;;;;5105842;28;20103;-40
2024/01/16 00:14:09;;;;;;;9.83;3.40;;;0.90;99.90;;;;;;5093389;28;20027;-39
2024/01/16 00:16:42;;;;;;;7.95;3.63;;;0.80;99.90;;;;;;5107971;28;20106;-39
2024/01/16 00:19:08;;;;;;;8.45;3.95;;;0.90;99.90;;;;;;5106846;28;20521;-40
2024/01/16 00:21:41;;;;;;;10.35;4.53;;;0.90;99.90;;;;;;5107684;28;20032;-39
2024/01/16 00:24:07;;;;;;;11.45;4.03;;;0.90;99.90;;;;;;5092733;28;20544;-39
2024/01/16 00:26:32;;;;;;;14.10;5.10;;;0.90;99.90;;;;;;5108051;28;20107;-40
2024/01/16 00:28:58;;;;;;;14.23;4.82;;;0.90;99.90;;;;;;5107898;28;20107;-40
2024/01/16 00:31:24;;;;;;;11.75;4.22;;;0.90;99.90;;;;;;5108106;28;20032;-40
2024/01/16 00:33:49;;;;;;;10.65;4.35;;;0.90;99.90;;;;;;5107971;28;20484;-39
2024/01/16 00:36:15;;;;;;;13.00;4.57;;;0.90;99.90;;;;;;5108464;28;20035;-39
2024/01/16 00:38:40;;;;;;;12.00;5.07;;;0.90;99.90;;;;;;5107511;28;20034;-39
2024/01/16 00:41:06;;;;;;;13.38;5.15;;;0.90;99.90;;;;;;5107949;28;20473;-40
2024/01/16 00:43:32;;;;;;;16.63;4.95;;;0.80;99.90;;;;;;5108322;28;20027;-40
2024/01/16 00:45:58;;;;;;;12.20;5.47;;;0.80;99.90;;;;;;5107966;28;20411;-40
2024/01/16 00:48:24;;;;;;;11.02;5.15;;;0.90;99.90;;;;;;5108227;28;20016;-39
2024/01/16 00:50:49;;;;;;;16.95;5.15;;;0.80;99.90;;;;;;5107742;28;20073;-39
2024/01/16 00:53:18;;;;;;;13.88;5.53;;;0.80;99.90;;;;;;5108503;28;20020;-40
2024/01/16 00:55:43;;;;;;;12.77;4.95;;;0.90;99.90;;;;;;5108231;28;20087;-40
2024/01/16 00:58:09;;;;;;;9.68;5.25;;;0.90;99.90;;;;;;5095806;28;20119;-40
2024/01/16 01:00:36;;;;;;;12.45;4.22;;;0.80;99.90;;;;;;5087617;28;20028;-40
2024/01/16 01:03:03;;;;;;;15.02;5.65;;;0.90;99.90;;;;;;5088140;28;20377;-40
2024/01/16 01:05:29;;;;;;;22.88;6.95;;;0.90;99.90;;;;;;5088173;28;20440;-40
2024/01/16 01:07:58;;;;;;;10.85;4.90;;;0.90;99.90;;;;;;5088146;28;20020;-42
2024/01/16 01:10:24;;;;;;;14.45;6.03;;;0.90;99.90;;;;;;5091542;28;20085;-37
2024/01/16 01:12:51;;;;;;;15.48;6.68;;;0.90;99.90;;;;;;5092140;28;20028;-39
2024/01/16 01:15:17;;;;;;;17.50;5.43;;;0.80;99.90;;;;;;5092273;28;20048;-39
2024/01/16 01:17:42;;;;;;;9.73;4.60;;;0.70;99.90;;;;;;5091947;28;20051;-39
2024/01/16 01:20:09;;;;;;;15.80;5.10;;;0.70;99.90;;;;;;5091485;28;20032;-39
2024/01/16 01:22:37;;;;;;;16.20;6.32;;;0.70;99.90;;;;;;5091893;28;20048;-39
2024/01/16 01:25:03;;;;;;;11.57;5.72;;;0.70;99.90;;;;;;5092679;28;20073;-39
2024/01/16 01:27:28;;;;;;;9.13;5.95;;;0.70;99.90;;;;;;5092130;28;20471;-39
2024/01/16 01:29:54;;;;;;;14.80;6.10;;;0.70;99.90;;;;;;5091946;28;20100;-39
2024/01/16 01:32:19;;;;;;;11.75;5.50;;;0.70;99.90;;;;;;5091985;28;20381;-39
2024/01/16 01:34:45;;;;;;;16.92;5.85;;;0.70;99.90;;;;;;5091994;28;20016;-39
2024/01/16 01:37:10;;;;;;;11.07;5.13;;;0.80;99.90;;;;;;5091845;28;20020;-39
2024/01/16 01:39:36;;;;;;;13.35;5.38;;;0.80;99.90;;;;;;5091642;28;20058;-39
2024/01/16 01:42:01;;;;;;;15.73;6.55;;;0.80;99.90;;;;;;5092278;28;20023;-39
2024/01/16 01:44:27;;;;;;;12.00;5.45;;;0.80;99.90;;;;;;5092260;28;20059;-39
2024/01/16 01:46:55;;;;;;;12.40;5.43;;;0.80;99.90;;;;;;5092178;28;20051;-40
2024/01/16 01:49:22;;;;;;;13.98;5.43;;;0.80;99.90;;;;;;5092315;28;20030;-39
2024/01/16 01:51:49;;;;;;;11.77;5.18;;;0.80;99.90;;;;;;5087476;28;20508;-39
2024/01/16 01:54:15;;;;;;;7.25;4.93;;;0.80;99.90;;;;;;5090674;28;20020;-39
2024/01/16 01:56:44;;;;;;;14.48;4.88;;;0.70;99.90;;;;;;5092036;28;20031;-39
2024/01/16 01:59:10;;;;;;;12.82;4.82;;;0.80;99.90;;;;;;5083980;28;20107;-39
2024/01/16 02:01:35;;;;;;;11.10;5.13;;;0.70;99.90;;;;;;5090346;28;20031;-40
2024/01/16 02:04:02;;;;;;;10.20;4.60;;;0.70;99.90;;;;;;5092456;28;20388;-40
2024/01/16 02:06:28;;;;;;;12.75;4.43;;;0.80;99.90;;;;;;5091758;28;20111;-40
2024/01/16 02:08:54;;;;;;;16.48;6.40;;;0.80;99.90;;;;;;5092797;28;20099;-40
2024/01/16 02:11:19;;;;;;;6.15;3.95;;;0.80;99.90;;;;;;5091558;28;20028;-39
2024/01/16 02:13:46;;;;;;;9.63;4.95;;;0.80;99.90;;;;;;5092735;28;20024;-40
2024/01/16 02:16:20;;;;;;;10.35;4.40;;;0.70;99.90;;;;;;5084635;28;20008;-40
2024/01/16 02:18:46;;;;;;;9.13;4.82;;;0.70;99.90;;;;;;5092620;28;20385;-40
2024/01/16 02:21:15;;;;;;;16.65;4.45;;;0.70;99.90;;;;;;5090762;28;20172;-40
2024/01/16 02:23:40;;;;;;;9.38;4.18;;;0.60;99.90;;;;;;5091999;28;20026;-40
2024/01/16 02:26:07;;;;;;;6.63;3.88;;;0.60;99.90;;;;;;5092391;28;20047;-40
2024/01/16 02:28:32;;;;;;;6.72;3.95;;;0.60;99.90;;;;;;5091988;28;20369;-40
2024/01/16 02:30:58;;;;;;;10.00;3.85;;;0.60;99.90;;;;;;5091714;28;20032;-40
2024/01/16 02:33:23;;;;;;;8.07;4.18;;;0.60;99.90;;;;;;5091434;28;20353;-39
2024/01/16 02:35:49;;;;;;;7.85;3.90;;;0.50;99.90;;;;;;5092223;28;20035;-45
2024/01/16 02:38:14;;;;;;;8.35;3.63;;;0.50;99.90;;;;;;5091858;28;20451;-40
2024/01/16 02:40:40;;;;;;;7.47;3.67;;;0.60;99.90;;;;;;5091563;28;20028;-39
2024/01/16 02:43:06;;;;;;;10.32;3.50;;;0.50;99.90;;;;;;5092723;28;20019;-39
2024/01/16 02:45:32;;;;;;;8.13;3.42;;;0.60;99.90;;;;;;5091772;28;20049;-39
2024/01/16 02:47:58;;;;;;;8.32;3.65;;;0.60;99.90;;;;;;5091384;28;20032;-39
2024/01/16 02:50:23;;;;;;;11.00;3.17;;;0.60;99.90;;;;;;5092194;28;20027;-39
2024/01/16 02:52:49;;;;;;;5.15;2.97;;;0.60;99.90;;;;;;5093361;28;20031;-39
2024/01/16 02:55:14;;;;;;;9.52;2.72;;;0.60;99.90;;;;;;5091394;28;20477;-39
2024/01/16 02:57:40;;;;;;;8.00;2.30;;;0.70;99.90;;;;;;5091369;28;20092;-39
2024/01/16 03:00:07;;;;;;;9.80;2.78;;;0.70;99.90;;;;;;5092264;28;20085;-39
2024/01/16 03:02:33;;;;;;;8.63;2.55;;;0.70;99.90;;;;;;5091958;28;20021;-39
2024/01/16 03:04:58;;;;;;;6.18;2.35;;;0.70;99.90;;;;;;5091556;28;20058;-40
2024/01/16 03:07:24;;;;;;;4.30;2.40;;;0.70;99.90;;;;;;5092056;28;20068;-40
2024/01/16 03:09:50;;;;;;;4.60;2.13;;;0.70;99.90;;;;;;5092972;28;20385;-39
2024/01/16 03:12:15;;;;;;;7.47;2.67;;;0.70;99.90;;;;;;5091095;28;20032;-40
2024/01/16 03:14:42;;;;;;;7.68;2.40;;;0.70;99.90;;;;;;5091435;28;20031;-40
2024/01/16 03:17:07;;;;;;;8.23;1.98;;;0.70;99.90;;;;;;5091217;28;20020;-40
2024/01/16 03:19:33;;;;;;;7.25;1.95;;;0.70;99.90;;;;;;5091704;28;20031;-40
2024/01/16 03:21:58;;;;;;;6.50;3.00;;;0.70;99.90;;;;;;5093178;28;20095;-40
2024/01/16 03:24:24;;;;;;;5.72;1.77;;;0.80;99.90;;;;;;5092036;28;20024;-40
2024/01/16 03:26:49;;;;;;;3.40;2.10;;;0.70;99.90;;;;;;5093317;28;20461;-40
2024/01/16 03:29:16;;;;;;;6.32;2.33;;;0.70;99.90;;;;;;5091760;28;20467;-40
2024/01/16 03:31:41;;;;;;;6.25;2.70;;;0.70;99.90;;;;;;5092127;28;20027;-40
2024/01/16 03:34:10;;;;;;;9.63;3.53;;;0.70;99.90;;;;;;5093444;28;20389;-40
2024/01/16 03:36:36;;;;;;;6.88;3.38;;;0.70;99.90;;;;;;5091643;28;20024;-40
2024/01/16 03:39:01;;;;;;;5.50;3.20;;;0.70;99.90;;;;;;5093517;28;20478;-40
2024/01/16 03:41:27;;;;;;;8.57;3.08;;;0.70;99.90;;;;;;5092025;28;20020;-40
2024/01/16 03:43:56;;;;;;;7.50;3.33;;;0.70;99.90;;;;;;5094132;28;20020;-40
2024/01/16 03:46:22;;;;;;;7.25;2.80;;;0.70;99.90;;;;;;5091929;28;20016;-40
2024/01/16 03:48:48;;;;;;;6.88;3.03;;;0.70;99.90;;;;;;5093343;28;20504;-40
2024/01/16 03:51:15;;;;;;;9.80;3.50;;;0.70;99.90;;;;;;5092507;28;20056;-40
2024/01/16 03:53:41;;;;;;;7.05;2.75;;;0.70;99.90;;;;;;5092703;28;20035;-41
2024/01/16 03:56:10;;;;;;;6.40;3.00;;;0.70;99.90;;;;;;5093896;28;20020;-45
2024/01/16 03:58:35;;;;;;;9.60;2.45;;;0.70;99.90;;;;;;5092593;28;20022;-40
2024/01/16 04:01:01;;;;;;;4.55;2.47;;;0.70;99.90;;;;;;5093743;28;20027;-39
2024/01/16 04:03:26;;;;;;;9.93;3.55;;;0.80;99.90;;;;;;5092652;28;20020;-40
2024/01/16 04:05:52;;;;;;;4.57;2.00;;;0.70;99.90;;;;;;5092713;28;20499;-40
2024/01/16 04:08:18;;;;;;;5.78;2.38;;;0.80;99.90;;;;;;5092436;28;20392;-39
2024/01/16 04:10:43;;;;;;;7.10;2.08;;;0.80;99.90;;;;;;5090970;28;20028;-40
2024/01/16 04:13:09;;;;;;;4.95;2.17;;;0.70;99.90;;;;;;5093722;28;20019;-40
2024/01/16 04:15:38;;;;;;;3.53;2.08;;;0.70;99.90;;;;;;5091055;28;20009;-40
2024/01/16 04:18:04;;;;;;;18.02;1.95;;;0.70;99.90;;;;;;5094072;28;20016;-40
2024/01/16 04:20:30;;;;;;;2.10;1.50;;;0.80;99.90;;;;;;5091981;28;20024;-40
2024/01/16 04:22:57;;;;;;;2.50;1.98;;;0.70;99.90;;;;;;5094831;28;20024;-40
2024/01/16 04:25:23;;;;;;;6.50;2.20;;;0.70;99.90;;;;;;5092563;28;20473;-40
2024/01/16 04:27:48;;;;;;;5.93;2.38;;;0.70;99.90;;;;;;5093986;28;20099;-40
2024/01/16 04:30:14;;;;;;;7.07;2.33;;;0.70;99.90;;;;;;5093380;28;20032;-40
2024/01/16 04:32:40;;;;;;;6.72;1.73;;;0.80;99.90;;;;;;5092892;28;20031;-40
2024/01/16 04:35:05;;;;;;;3.30;2.25;;;0.80;99.90;;;;;;5089097;28;20412;-40
2024/01/16 04:37:31;;;;;;;6.65;2.30;;;0.80;99.90;;;;;;5092633;28;20016;-40
2024/01/16 04:39:58;;;;;;;3.00;1.95;;;0.80;99.90;;;;;;5094349;28;20103;-39
2024/01/16 04:42:23;;;;;;;5.90;2.10;;;0.80;99.90;;;;;;5093169;28;20477;-40
2024/01/16 04:44:49;;;;;;;4.10;2.28;;;0.80;99.90;;;;;;5097132;28;20404;-40
2024/01/16 04:47:14;;;;;;;3.25;2.03;;;0.80;99.90;;;;;;5097694;28;20039;-40
2024/01/16 04:49:44;;;;;;;6.38;1.90;;;0.80;99.90;;;;;;5095054;28;20044;-40
2024/01/16 04:52:09;;;;;;;5.43;1.80;;;0.70;99.90;;;;;;5094955;28;20020;-39
2024/01/16 04:54:35;;;;;;;8.10;2.40;;;0.60;99.90;;;;;;5096778;28;20370;-40
2024/01/16 04:57:01;;;;;;;8.07;3.15;;;0.60;99.90;;;;;;5099369;28;20041;-40
2024/01/16 04:59:26;;;;;;;8.15;2.53;;;0.60;99.90;;;;;;5096402;28;20056;-40
2024/01/16 05:01:52;;;;;;;6.85;2.28;;;0.60;99.90;;;;;;5097090;28;20032;-39
2024/01/16 05:04:18;;;;;;;5.82;2.33;;;0.50;99.90;;;;;;5097483;28;20544;-39
2024/01/16 05:06:43;;;;;;;4.60;2.28;;;0.50;99.90;;;;;;5096956;28;20020;-39
2024/01/16 05:09:09;;;;;;;6.50;2.80;;;0.50;99.90;;;;;;5095828;28;20107;-40
2024/01/16 05:11:35;;;;;;;7.82;2.55;;;0.50;99.90;;;;;;5095226;28;20339;-39
2024/01/16 05:14:01;;;;;;;4.45;2.50;;;0.40;99.90;;;;;;5096688;28;20026;-39
2024/01/16 05:16:27;;;;;;;7.72;4.05;;;0.50;99.90;;;;;;5093316;28;20016;-39
2024/01/16 05:18:53;;;;;;;7.57;2.90;;;0.50;99.90;;;;;;5096723;28;20020;-44
2024/01/16 05:21:19;;;;;;;10.75;3.58;;;0.50;99.90;;;;;;5095231;28;21668;-39
2024/01/16 05:23:45;;;;;;;6.03;2.95;;;0.50;99.90;;;;;;5094323;28;20020;-40
2024/01/16 05:26:11;;;;;;;5.47;3.35;;;0.40;99.90;;;;;;5096163;28;20038;-39
2024/01/16 05:28:38;;;;;;;9.07;3.28;;;0.50;99.90;;;;;;5094881;28;20090;-40
2024/01/16 05:31:03;;;;;;;8.27;3.72;;;0.40;99.90;;;;;;5095450;28;20055;-39
2024/01/16 05:33:29;;;;;;;17.75;5.30;;;0.40;99.90;;;;;;5095548;28;20071;-39
2024/01/16 05:35:57;;;;;;;11.82;4.70;;;0.40;99.90;;;;;;5097157;28;20103;-40
2024/01/16 05:38:22;;;;;;;10.50;3.72;;;0.50;99.90;;;;;;5093448;28;20027;-40
2024/01/16 05:40:48;;;;;;;9.48;3.83;;;0.40;99.90;;;;;;5095532;28;20044;-39
2024/01/16 05:43:14;;;;;;;12.93;3.83;;;0.50;99.90;;;;;;5099038;28;20307;-39
2024/01/16 05:45:40;;;;;;;8.30;3.58;;;0.50;99.90;;;;;;5094617;28;20487;-40
2024/01/16 05:48:07;;;;;;;10.60;4.07;;;0.50;99.90;;;;;;5092971;28;20110;-40
2024/01/16 05:50:33;;;;;;;7.68;3.58;;;0.50;99.90;;;;;;5097461;28;20066;-40
2024/01/16 05:52:59;;;;;;;9.38;2.97;;;0.50;99.90;;;;;;5099843;28;20042;-39
2024/01/16 05:55:25;;;;;;;15.52;3.33;;;0.50;99.90;;;;;;5095762;28;20542;-40
2024/01/16 05:57:50;;;;;;;12.20;3.83;;;0.50;99.90;;;;;;5097718;28;20020;-39
2024/01/16 06:00:18;;;;;;;16.63;3.17;;;0.50;99.90;;;;;;5095045;28;20055;-39
2024/01/16 06:02:44;;;;;;;12.27;2.90;;;0.50;99.90;;;;;;5097327;28;20177;-40
2024/01/16 06:05:09;;;;;;;10.30;3.03;;;0.50;99.90;;;;;;5094773;27;20567;-39
2024/01/16 06:07:35;;;;;;;16.17;2.95;;;0.50;99.90;;;;;;5091832;28;20024;-40
2024/01/16 06:10:00;;;;;;;18.10;3.58;;;0.50;99.90;;;;;;5094009;28;20023;-39
2024/01/16 06:12:26;;;;;;;14.40;3.72;;;0.50;99.90;;;;;;5092499;28;20266;-39
2024/01/16 06:14:52;;;;;;;12.75;3.28;;;0.50;99.90;;;;;;5094279;28;20465;-39
2024/01/16 06:17:17;;;;;;;14.15;3.55;;;0.50;99.90;;;;;;5094191;28;20124;-39
2024/01/16 06:19:43;;;;;;;7.68;2.83;;;0.50;99.90;;;;;;5088730;28;20108;-39
2024/01/16 06:22:08;;;;;;;13.70;3.35;;;0.50;99.90;;;;;;5095405;28;20024;-41
2024/01/16 06:24:36;;;;;;;9.05;3.30;;;0.50;99.90;;;;;;5094540;28;20020;-40
2024/01/16 06:27:04;;;;;;;9.88;3.70;;;0.50;99.90;;;;;;5095730;28;20055;-40
2024/01/16 06:29:30;;;;;;;10.20;3.45;;;0.50;99.90;;;;;;5092153;28;20032;-40
2024/01/16 06:31:55;;;;;;;14.18;3.97;;;0.50;99.90;;;;;;5094226;28;20039;-42
2024/01/16 06:34:21;;;;;;;9.75;4.68;;;0.50;99.90;;;;;;5090587;28;20461;-40
2024/01/16 06:36:46;;;;;;;18.20;4.47;;;0.50;99.90;;;;;;5093433;28;20035;-40
2024/01/16 06:39:13;;;;;;;9.13;4.25;;;0.50;99.90;;;;;;5089881;28;20085;-40
2024/01/16 06:41:42;;;;;;;15.35;4.20;;;0.50;99.90;;;;;;5092163;28;20024;-40
2024/01/16 06:44:08;;;;;;;10.00;4.15;;;0.40;99.90;;;;;;5091136;28;20108;-41
2024/01/16 06:46:34;;;;;;;20.92;5.22;;;0.40;99.90;;;;;;5089907;28;20070;-40
2024/01/16 06:49:00;;;;;;;13.73;4.28;;;0.40;99.90;;;;;;5090899;28;20085;-40
2024/01/16 06:51:27;;;;;;;10.68;3.88;;;0.40;99.90;;;;;;5096211;28;20472;-39
2024/01/16 06:53:53;;;;;;;10.80;4.80;;;0.40;99.90;;;;;;5097744;28;20068;-40
2024/01/16 06:56:18;;;;;;;14.98;5.68;;;0.40;99.90;;;;;;5097181;28;20048;-40
2024/01/16 06:58:44;;;;;;;15.20;4.80;;;0.40;99.90;;;;;;5101173;28;20019;-40
2024/01/16 07:01:10;;;;;;;13.73;5.32;;;0.30;99.90;;;;;;5100853;28;20027;-40
2024/01/16 07:03:35;;;;;;;15.57;5.00;;;0.30;99.90;;;;;;5100503;28;20028;-40
2024/01/16 07:06:02;;;;;;;26.00;5.85;;;0.30;99.90;;;;;;5100447;28;20479;-40
2024/01/16 07:08:28;;;;;;;13.25;5.22;;;0.20;99.90;;;;;;5100240;28;20031;-40
2024/01/16 07:10:53;;;;;;;13.50;4.85;;;0.20;99.90;;;;;;5101044;28;20027;-42
2024/01/16 07:13:19;;;;;;;14.13;4.80;;;0.30;99.90;;;;;;5099439;28;20027;-40
2024/01/16 07:15:45;;;;;;;22.65;4.80;;;0.30;99.90;;;;;;5100782;28;20028;-40
2024/01/16 07:18:10;;;;;;;15.50;4.60;;;0.30;99.90;;;;;;5103251;28;20413;-41
2024/01/16 07:20:36;;;;;;;12.30;4.97;;;0.30;99.90;;;;;;5099792;28;20115;-40
2024/01/16 07:23:02;;;;;;;13.35;4.95;;;0.30;99.90;;;;;;5103762;28;20027;-40
2024/01/16 07:25:28;;;;;;;15.75;4.13;;;0.30;99.90;;;;;;5100888;28;20099;-40
2024/01/16 07:27:53;;;;;;;16.52;5.70;;;0.30;99.90;;;;;;5100370;28;20099;-41
2024/01/16 07:30:19;;;;;;;13.45;3.83;;;0.30;99.90;;;;;;5098690;28;20036;-41
2024/01/16 07:32:45;;;;;;;19.70;4.05;;;0.30;99.90;;;;;;5097485;28;20016;-39
2024/01/16 07:35:10;;;;;;;16.70;4.22;;;0.30;99.90;;;;;;5100278;28;20107;-39
2024/01/16 07:37:36;;;;;;;8.30;3.63;;;0.30;99.90;;;;;;5096679;28;20034;-40
2024/01/16 07:40:02;;;;;;;11.95;3.97;;;0.30;99.90;;;;;;5095271;28;20131;-40
2024/01/16 07:42:33;;;;;;;9.35;4.00;;;0.40;99.90;;;;;;5096995;28;20569;-39
2024/01/16 07:45:05;;;;;;;16.00;4.50;;;0.40;99.90;;;;;;5102990;28;20301;-39
2024/01/16 07:47:32;;;;;;;11.63;4.38;;;0.40;99.90;;;;;;5098102;28;20070;-40
2024/01/16 07:49:59;;;;;;;15.27;4.10;;;0.50;99.90;;;;;;5097607;28;20024;-40
2024/01/16 07:52:25;;;;;;;9.80;4.32;;;0.50;99.90;;;;;;5097507;28;20030;-40
2024/01/16 07:54:50;;;;;;;18.58;4.60;;;0.50;99.90;;;;;;5097852;28;20303;-39
2024/01/16 07:57:16;;;;;;;15.07;4.70;;;0.60;99.90;;;;;;5096229;28;20034;-40
2024/01/16 07:59:42;;;;;;;16.80;5.72;;;0.60;99.90;;;;;;5096658;28;20023;-39
2024/01/16 08:02:08;;;;;;;9.15;4.35;;;0.60;99.90;;;;;;5096924;28;20046;-40
2024/01/16 08:04:34;;;;;;;13.70;4.32;;;0.60;99.90;;;;;;5099875;28;20389;-40
2024/01/16 08:07:00;;;;;;;12.68;4.85;;;0.60;99.90;;;;;;5099076;28;20031;-40
2024/01/16 08:09:26;;;;;;;11.70;4.05;;;0.60;99.90;;;;;;5097770;28;20032;-40
2024/01/16 08:11:51;;;;;;;11.63;4.32;;;0.60;99.90;;;;;;5095463;28;20080;-40
2024/01/16 08:14:17;;;;;;;12.35;4.60;;;0.70;99.90;;;;;;5100121;28;20444;-40
2024/01/16 08:16:43;;;;;;;14.27;4.57;;;0.70;99.90;;;;;;5094418;28;20142;-40
2024/01/16 08:19:08;;;;;;;19.85;4.70;;;0.70;99.90;;;;;;5100177;28;20118;-40
2024/01/16 08:21:34;;;;;;;10.68;4.43;;;0.80;99.90;;;;;;5097804;28;20016;-40
2024/01/16 08:23:59;;;;;;;9.32;4.03;;;0.80;99.90;;;;;;5099822;28;20032;-45
2024/01/16 08:26:25;;;;;;;16.88;4.22;;;0.80;99.90;;;;;;5097714;28;20027;-39
2024/01/16 08:28:51;;;;;;;9.90;3.67;;;0.90;99.90;;;;;;5098391;28;20151;-39
2024/01/16 08:31:18;;;;;;;15.07;4.50;;;0.90;99.90;;;;;;5090770;28;20032;-39
2024/01/16 08:33:44;;;;;;;13.48;4.20;;;0.90;99.90;;;;;;5090036;28;20016;-41
2024/01/16 08:36:09;;;;;;;15.30;4.28;;;0.90;99.90;;;;;;5093480;28;20448;-40
2024/01/16 08:38:35;;;;;;;11.18;4.10;;;0.90;99.90;;;;;;5091982;28;20798;-39
2024/01/16 08:41:01;;;;;;;14.07;4.88;;;1.00;99.90;;;;;;5092436;28;20039;-39
2024/01/16 08:43:26;;;;;;;12.30;4.43;;;1.00;99.90;;;;;;5088081;28;20024;-38
2024/01/16 08:45:52;;;;;;;20.10;5.30;;;1.00;99.90;;;;;;5091186;28;20091;-39
2024/01/16 08:48:17;;;;;;;17.45;4.22;;;1.10;99.90;;;;;;5097176;28;20032;-38
2024/01/16 08:50:45;;;;;;;11.98;5.00;;;1.10;99.90;;;;;;5096851;28;20354;-39
2024/01/16 08:53:10;;;;;;;16.75;4.80;;;1.10;99.90;;;;;;5091743;28;20053;-40
2024/01/16 08:55:36;;;;;;;11.35;4.70;;;1.20;99.90;;;;;;5088223;28;20485;-39
2024/01/16 08:58:02;;;;;;;13.80;4.93;;;1.20;99.90;;;;;;5091710;28;20019;-39
2024/01/16 09:00:27;;;;;;;18.55;4.95;;;1.20;99.90;;;;;;5097243;28;20050;-39
2024/01/16 09:02:53;;;;;;;15.50;4.75;;;1.30;99.90;;;;;;5098073;28;20024;-41
2024/01/16 09:05:21;;;;;;;15.30;4.95;;;1.30;99.90;;;;;;5095994;28;20039;-39
2024/01/16 09:07:47;;;;;;;17.25;5.38;;;1.30;99.90;;;;;;5093112;28;20069;-39
2024/01/16 09:10:13;;;;;;;16.63;5.35;;;1.40;99.90;;;;;;5093309;28;20035;-39
2024/01/16 09:12:38;;;;;;;11.45;5.00;;;1.50;99.90;;;;;;5096950;28;20477;-39
2024/01/16 09:15:04;;;;;;;10.60;4.78;;;1.50;99.90;;;;;;5098502;28;20028;-39
2024/01/16 09:17:30;;;;;;;13.75;5.60;;;1.60;99.90;;;;;;5097735;28;20497;-39
2024/01/16 09:19:56;;;;;;;10.25;5.05;;;1.70;99.90;;;;;;5098484;28;20091;-39
2024/01/16 09:22:21;;;;;;;10.93;5.43;;;1.80;99.90;;;;;;5097719;28;20088;-39
2024/01/16 09:24:47;;;;;;;14.18;5.43;;;1.90;99.90;;;;;;5097478;28;20028;-39
2024/01/16 09:27:14;;;;;;;11.43;5.45;;;2.00;99.90;;;;;;5099997;28;20161;-39
2024/01/16 09:29:40;;;;;;;18.05;6.40;;;2.10;99.90;;;;;;5098198;28;20099;-39
2024/01/16 09:32:06;;;;;;;17.55;5.90;;;2.10;99.90;;;;;;5103864;28;20031;-39
2024/01/16 09:34:31;;;;;;;17.67;5.88;;;2.10;99.90;;;;;;5102624;28;20408;-41
2024/01/16 09:37:00;;;;;;;12.32;4.50;;;2.20;99.90;;;;;;5103215;28;20008;-39
2024/01/16 09:39:26;;;;;;;16.48;5.07;;;2.30;99.90;;;;;;5103653;28;20072;-39
2024/01/16 09:41:52;;;;;;;12.25;4.70;;;2.30;99.90;;;;;;5103434;28;20028;-40
2024/01/16 09:44:17;;;;;;;13.95;5.13;;;2.40;99.90;;;;;;5100071;28;20036;-40
2024/01/16 09:46:47;;;;;;;19.00;5.53;;;2.40;99.90;;;;;;5104007;28;20028;-40
2024/01/16 09:49:15;;;;;;;18.90;5.32;;;2.30;99.90;;;;;;5105257;28;20103;-39
2024/01/16 09:51:43;;;;;;;15.00;4.93;;;2.20;99.90;;;;;;5102171;28;20119;-40
2024/01/16 09:54:08;;;;;;;14.05;5.10;;;2.20;99.90;;;;;;5105518;28;20073;-40
2024/01/16 09:56:39;;;;;;;12.43;4.85;;;2.10;99.90;;;;;;5103488;27;20024;-40
2024/01/16 09:59:06;;;;;;;11.88;5.45;;;2.10;99.90;;;;;;5103138;28;20046;-40
2024/01/16 10:01:33;;;;;;;18.13;5.20;;;2.00;99.90;;;;;;5103529;28;20392;-40
2024/01/16 10:04:04;;;;;;;9.73;4.68;;;2.00;99.90;;;;;;5101188;28;20334;-40
2024/01/16 10:06:33;;;;;;;10.25;4.55;;;2.00;99.90;;;;;;5104453;28;20412;-39
2024/01/16 10:08:59;;;;;;;19.50;4.88;;;2.00;99.90;;;;;;5095765;28;20085;-40
2024/01/16 10:11:25;;;;;;;12.60;5.10;;;2.00;99.90;;;;;;5099732;28;20448;-40
2024/01/16 10:13:51;;;;;;;19.10;4.97;;;2.00;99.90;;;;;;5097928;28;20031;-39
2024/01/16 10:16:16;;;;;;;12.30;5.13;;;2.10;99.90;;;;;;5105724;28;20031;-40
2024/01/16 10:18:43;;;;;;;15.73;5.03;;;2.10;99.90;;;;;;5102545;28;20067;-40
2024/01/16 10:21:22;;;;;;;13.32;4.40;;;2.20;99.90;;;;;;5105270;28;20481;-40
2024/01/16 10:23:49;;;;;;;10.60;4.55;;;2.30;99.90;;;;;;5102843;27;20054;-39
2024/01/16 10:26:15;;;;;;;9.00;4.65;;;2.40;99.90;;;;;;5105418;28;20046;-40
2024/01/16 10:28:42;;;;;;;20.13;5.68;;;2.50;99.90;;;;;;5103261;28;20571;-40
2024/01/16 10:31:10;;;;;;;12.90;4.80;;;2.70;99.90;;;;;;5093765;28;20050;-40
2024/01/16 10:33:38;;;;;;;13.32;5.00;;;2.90;99.90;;;;;;5103680;28;20016;-40
2024/01/16 10:36:10;;;;;;;9.32;4.15;;;3.00;99.90;;;;;;5100302;28;20072;-40
2024/01/16 10:38:38;;;;;;;10.10;5.38;;;3.20;99.90;;;;;;5101744;28;20526;-40
2024/01/16 10:41:17;;;;;;;14.18;4.03;;;3.30;99.90;;;;;;5102642;28;20023;-41
2024/01/16 10:43:44;;;;;;;14.82;5.22;;;3.30;99.90;;;;;;5099322;28;20069;-40
2024/01/16 10:46:14;;;;;;;7.40;4.28;;;3.20;99.90;;;;;;5105440;28;20038;-40
2024/01/16 10:48:44;;;;;;;12.57;4.82;;;3.10;99.90;;;;;;5103295;28;20103;-40
2024/01/16 10:51:23;;;;;;;9.15;4.18;;;2.90;99.90;;;;;;5104337;28;20154;-40
2024/01/16 10:53:50;;;;;;;10.90;4.75;;;2.90;99.90;;;;;;5103174;28;20027;-40
2024/01/16 10:56:18;;;;;;;14.43;5.43;;;2.90;99.90;;;;;;5105588;28;20027;-40
2024/01/16 10:58:45;;;;;;;10.30;4.72;;;2.80;99.90;;;;;;5103289;28;20093;-40
2024/01/16 11:01:15;;;;;;;13.30;4.45;;;2.70;99.90;;;;;;5105382;28;20035;-41
2024/01/16 11:03:47;;;;;;;11.23;4.85;;;2.70;99.90;;;;;;5103495;28;20035;-39
2024/01/16 11:06:18;;;;;;;11.15;4.60;;;2.70;99.90;;;;;;5095042;28;20030;-40
2024/01/16 11:08:48;;;;;;;12.88;5.43;;;2.70;99.90;;;;;;5103619;28;20130;-40
2024/01/16 11:11:15;;;;;;;11.80;5.35;;;2.70;99.90;;;;;;5105414;28;20031;-40
2024/01/16 11:13:44;;;;;;;9.68;4.47;;;2.70;99.90;;;;;;5103706;28;20016;-40
2024/01/16 11:16:13;;;;;;;16.00;5.60;;;2.70;99.90;;;;;;5093817;28;20510;-40
2024/01/16 11:18:39;;;;;;;14.98;5.15;;;2.60;99.90;;;;;;5103801;28;20051;-40
2024/01/16 11:21:08;;;;;;;16.25;4.70;;;2.60;99.90;;;;;;5105215;28;20039;-40
2024/01/16 11:23:35;;;;;;;14.07;4.97;;;2.70;99.90;;;;;;5104732;28;20047;-39
2024/01/16 11:26:27;;;;;;;12.60;5.38;;;2.80;99.90;;;;;;5104668;28;20389;-39
2024/01/16 11:28:56;;;;;;;12.13;5.15;;;3.30;99.90;;;;;;5101785;28;20024;-40
2024/01/16 11:31:32;;;;;;;12.68;4.95;;;3.60;99.90;;;;;;5102055;28;20023;-42
2024/01/16 11:34:01;;;;;;;10.77;5.22;;;3.60;99.90;;;;;;5103301;28;20473;-40
2024/01/16 11:36:45;;;;;;;9.38;5.13;;;3.50;99.90;;;;;;5105363;28;20432;-40
2024/01/16 11:39:18;;;;;;;16.48;5.53;;;3.50;99.90;;;;;;5105247;28;20031;-40
2024/01/16 11:41:57;;;;;;;12.85;5.05;;;3.50;99.90;;;;;;5098705;28;20602;-40
2024/01/16 11:44:42;;;;;;;9.43;4.63;;;3.40;99.90;;;;;;5105680;28;20472;-40
2024/01/16 11:47:09;;;;;;;14.25;4.55;;;3.40;99.90;;;;;;5106097;28;20038;-40
2024/01/16 11:49:39;;;;;;;14.38;5.38;;;3.30;99.90;;;;;;5103398;28;20023;-39
2024/01/16 11:52:05;;;;;;;18.08;5.07;;;3.30;99.90;;;;;;5104162;28;20036;-39
2024/01/16 11:54:30;;;;;;;12.35;5.50;;;3.50;99.90;;;;;;5105616;28;20381;-39
2024/01/16 11:57:18;;;;;;;10.10;4.90;;;3.70;99.90;;;;;;5104242;28;20020;-40
2024/01/16 11:59:52;;;;;;;14.50;5.68;;;4.10;99.90;;;;;;5103897;28;20549;-40
2024/01/16 12:02:26;;;;;;;15.30;5.97;;;4.10;99.90;;;;;;5101689;28;20028;-40
2024/01/16 12:04:56;;;;;;;11.88;5.72;;;4.00;99.90;;;;;;5104349;28;20385;-40
2024/01/16 12:07:22;;;;;;;14.80;5.73;;;4.10;99.90;;;;;;5105685;28;20019;-40
2024/01/16 12:09:48;;;;;;;13.32;5.45;;;4.50;99.90;;;;;;5097860;28;20272;-40
2024/01/16 12:12:15;;;;;;;15.23;5.93;;;4.60;99.90;;;;;;5089310;28;20020;-40
2024/01/16 12:14:41;;;;;;;13.63;5.40;;;4.70;99.90;;;;;;5090441;28;20103;-40
2024/01/16 12:17:13;;;;;;;12.20;6.10;;;4.60;99.90;;;;;;5090740;28;20103;-39
2024/01/16 12:19:43;;;;;;;10.45;5.03;;;4.50;99.90;;;;;;5101931;28;20046;-39
2024/01/16 12:22:12;;;;;;;16.20;5.63;;;4.40;99.90;;;;;;5092874;28;20028;-39
2024/01/16 12:24:38;;;;;;;10.60;5.13;;;4.20;99.90;;;;;;5104632;28;20107;-40
2024/01/16 12:27:05;;;;;;;8.05;4.53;;;4.00;99.90;;;;;;5105448;28;20107;-40
2024/01/16 12:29:31;;;;;;;14.93;6.47;;;3.90;99.90;;;;;;5091477;28;20046;-40
2024/01/16 12:32:09;;;;;;;11.27;5.03;;;3.70;99.90;;;;;;5092306;28;20343;-40
2024/01/16 12:34:43;;;;;;;10.45;5.07;;;3.60;99.90;;;;;;5090247;28;20493;-39
2024/01/16 12:37:09;;;;;;;16.52;4.88;;;3.60;99.90;;;;;;5090093;28;20039;-40
2024/01/16 12:39:35;;;;;;;10.70;4.43;;;3.70;99.90;;;;;;5091075;28;20540;-40
2024/01/16 12:42:01;;;;;;;11.65;5.03;;;3.50;99.90;;;;;;5103804;28;20016;-40
2024/01/16 12:44:28;;;;;;;15.98;5.75;;;3.50;99.90;;;;;;5106272;28;20073;-40
2024/01/16 12:46:55;;;;;;;13.95;4.63;;;3.40;99.90;;;;;;5104846;28;20467;-40
2024/01/16 12:49:24;;;;;;;15.05;5.03;;;3.30;99.90;;;;;;5098290;28;20031;-40